Time;durP1;ratioP1;P1;durP2;ratioP2;P2;SDS_P1;SDS_P2;PMS_P1;PMS_P2;Temp;Humidity;BMP_temperature;BMP_pressure;BME280_temperature;BME280_humidity;BME280_pressure;Samples;Min_cycle;Max_cycle;Signal;HPM_P1;HPM_P2
2021/08/13 00:01:40;;;;;;;4.55;3.47;;;18.30;76.80;;;;;;6252447;22;20365;-89
2021/08/13 00:04:06;;;;;;;4.72;3.65;;;18.30;77.20;;;;;;6251606;22;20312;-89
2021/08/13 00:06:32;;;;;;;5.57;3.80;;;18.30;77.50;;;;;;6251049;22;20026;-89
2021/08/13 00:08:57;;;;;;;4.95;3.88;;;18.20;77.70;;;;;;6251716;22;20000;-89
2021/08/13 00:11:23;;;;;;;4.47;3.53;;;18.20;78.10;;;;;;6278618;22;19996;-89
2021/08/13 00:13:49;;;;;;;5.15;3.80;;;18.20;78.60;;;;;;6251787;22;20082;-89
2021/08/13 00:16:14;;;;;;;5.70;4.15;;;18.20;79.00;;;;;;6278639;22;20390;-89
2021/08/13 00:18:40;;;;;;;4.75;3.33;;;18.20;79.10;;;;;;6251319;22;20499;-89
2021/08/13 00:21:06;;;;;;;5.32;4.32;;;18.20;79.40;;;;;;6251874;22;20003;-89
2021/08/13 00:23:32;;;;;;;6.10;4.28;;;18.20;79.50;;;;;;6279089;22;20364;-88
2021/08/13 00:25:57;;;;;;;6.43;4.20;;;18.20;80.30;;;;;;6252015;22;20004;-89
2021/08/13 00:28:23;;;;;;;5.15;3.45;;;18.10;79.80;;;;;;6254018;22;20000;-88
2021/08/13 00:30:49;;;;;;;6.70;3.95;;;18.10;79.40;;;;;;6255312;22;20077;-89
2021/08/13 00:33:14;;;;;;;4.60;4.00;;;18.10;79.50;;;;;;6281633;22;19996;-90
2021/08/13 00:35:40;;;;;;;4.22;3.13;;;18.10;79.70;;;;;;6254031;22;20007;-89
2021/08/13 00:38:05;;;;;;;4.80;3.97;;;18.00;79.50;;;;;;6251673;22;20046;-89
2021/08/13 00:40:31;;;;;;;4.65;3.80;;;18.00;79.60;;;;;;6278530;22;20000;-89
2021/08/13 00:42:57;;;;;;;5.68;3.85;;;18.00;79.40;;;;;;6251483;22;20007;-89
2021/08/13 00:45:22;;;;;;;9.32;4.38;;;17.90;79.80;;;;;;6278826;22;19995;-88
2021/08/13 00:47:48;;;;;;;8.77;3.95;;;17.90;79.70;;;;;;6251513;22;20404;-89
2021/08/13 00:50:14;;;;;;;5.85;4.35;;;17.90;79.80;;;;;;6251732;22;20014;-89
2021/08/13 00:52:40;;;;;;;4.35;3.45;;;17.90;80.00;;;;;;6251720;22;20027;-89
2021/08/13 00:55:07;;;;;;;4.65;3.08;;;17.90;80.00;;;;;;6278828;22;19996;-88
2021/08/13 00:57:32;;;;;;;5.30;3.90;;;17.90;79.90;;;;;;6278835;22;19995;-89
2021/08/13 00:59:59;;;;;;;4.75;3.53;;;17.90;80.00;;;;;;6278521;22;20422;-89
2021/08/13 01:02:25;;;;;;;4.50;3.65;;;17.90;80.60;;;;;;6251363;22;20000;-89
2021/08/13 01:04:51;;;;;;;4.80;3.67;;;17.90;80.20;;;;;;6251599;22;20441;-89
2021/08/13 01:07:17;;;;;;;5.10;3.28;;;17.90;80.20;;;;;;6251449;22;20069;-89
2021/08/13 01:09:43;;;;;;;4.85;3.63;;;17.90;80.30;;;;;;6251617;22;20395;-90
2021/08/13 01:12:29;;;;;;;5.60;4.45;;;17.80;80.50;;;;;;6278391;22;20041;-89
2021/08/13 01:15:16;;;;;;;5.22;3.63;;;17.90;80.50;;;;;;6250997;22;20472;-89
2021/08/13 01:17:44;;;;;;;7.07;4.28;;;17.80;80.80;;;;;;6251058;22;20068;-90
2021/08/13 01:20:44;;;;;;;6.63;4.15;;;17.80;80.50;;;;;;6251311;22;20476;-89
2021/08/13 01:23:16;;;;;;;5.50;3.85;;;17.80;80.60;;;;;;6278658;22;20000;-89
2021/08/13 01:25:48;;;;;;;5.25;4.18;;;17.70;80.60;;;;;;6251685;22;19999;-89
2021/08/13 01:28:54;;;;;;;4.75;3.60;;;17.70;81.00;;;;;;6251757;22;20003;-89
2021/08/13 01:31:23;;;;;;;5.22;3.58;;;17.70;80.90;;;;;;6250608;22;20010;-89
2021/08/13 01:33:55;;;;;;;4.70;3.17;;;17.70;81.20;;;;;;6251276;22;20419;-89
2021/08/13 01:36:22;;;;;;;5.78;3.55;;;17.70;81.10;;;;;;6251431;22;20099;-89
2021/08/13 01:38:50;;;;;;;4.38;3.53;;;17.70;81.10;;;;;;6251036;22;19996;-89
2021/08/13 01:41:18;;;;;;;5.40;3.97;;;17.70;81.20;;;;;;6251333;22;20091;-89
2021/08/13 01:43:44;;;;;;;4.50;3.15;;;17.70;81.50;;;;;;6251194;22;20046;-89
2021/08/13 01:46:12;;;;;;;5.28;3.88;;;17.60;81.30;;;;;;6278433;22;20027;-89
2021/08/13 01:48:38;;;;;;;4.50;3.60;;;17.60;81.70;;;;;;6250994;22;20430;-89
2021/08/13 01:51:05;;;;;;;4.53;3.78;;;17.60;81.80;;;;;;6251471;22;20055;-89
2021/08/13 01:53:31;;;;;;;4.50;3.80;;;17.60;82.00;;;;;;6278458;22;20012;-89
2021/08/13 01:55:57;;;;;;;7.05;4.22;;;17.50;82.20;;;;;;6250991;22;20034;-89
2021/08/13 01:58:24;;;;;;;6.03;3.83;;;17.60;82.40;;;;;;6251007;22;20042;-89
2021/08/13 02:00:51;;;;;;;3.83;3.15;;;17.50;82.40;;;;;;6250984;22;20095;-89
2021/08/13 02:03:17;;;;;;;6.55;4.43;;;17.50;82.90;;;;;;6251211;22;20307;-90
2021/08/13 02:05:43;;;;;;;5.75;3.53;;;17.50;83.00;;;;;;6251248;22;20057;-89
2021/08/13 02:08:10;;;;;;;4.80;3.80;;;17.50;82.80;;;;;;6250808;22;20407;-88
2021/08/13 02:10:38;;;;;;;6.32;3.70;;;17.40;83.40;;;;;;6251077;22;19995;-89
2021/08/13 02:13:05;;;;;;;7.25;4.03;;;17.40;83.10;;;;;;6278604;22;19991;-89
2021/08/13 02:15:33;;;;;;;5.13;3.38;;;17.30;84.10;;;;;;6282496;22;19991;-88
2021/08/13 02:18:04;;;;;;;4.43;3.50;;;17.30;83.60;;;;;;6282841;22;20011;-88
2021/08/13 02:20:32;;;;;;;4.28;3.15;;;17.30;84.10;;;;;;6281934;22;20018;-89
2021/08/13 02:22:58;;;;;;;5.53;3.65;;;17.30;84.50;;;;;;6284265;22;20012;-89
2021/08/13 02:25:24;;;;;;;5.38;3.55;;;17.20;84.60;;;;;;6280151;22;20023;-89
2021/08/13 02:27:51;;;;;;;6.15;4.45;;;17.20;84.60;;;;;;6278073;22;20074;-89
2021/08/13 02:30:17;;;;;;;5.07;3.83;;;17.20;85.70;;;;;;6250899;22;19999;-89
2021/08/13 02:32:43;;;;;;;4.35;3.20;;;17.10;85.30;;;;;;6250903;22;20003;-89
2021/08/13 02:35:09;;;;;;;4.95;3.47;;;17.10;85.30;;;;;;6277684;22;20077;-88
2021/08/13 02:37:47;;;;;;;6.43;4.75;;;17.10;85.40;;;;;;6250727;22;19999;-89
2021/08/13 02:40:15;;;;;;;5.13;3.45;;;17.10;85.80;;;;;;6278006;22;20000;-89
2021/08/13 02:42:58;;;;;;;4.97;3.58;;;17.10;85.70;;;;;;6250760;22;19996;-89
2021/08/13 02:45:26;;;;;;;5.80;4.30;;;17.00;85.60;;;;;;6250637;22;20422;-89
2021/08/13 02:47:55;;;;;;;4.78;3.80;;;17.00;86.00;;;;;;6250376;22;20000;-89
2021/08/13 02:50:23;;;;;;;5.38;3.58;;;17.00;86.10;;;;;;6250716;22;20061;-87
2021/08/13 02:52:55;;;;;;;5.13;4.05;;;17.00;86.00;;;;;;6250602;22;20000;-89
2021/08/13 02:55:27;;;;;;;5.20;4.50;;;17.00;87.00;;;;;;6277766;22;20051;-89
2021/08/13 02:57:58;;;;;;;6.43;4.25;;;17.00;87.30;;;;;;6250595;22;20003;-89
2021/08/13 03:00:24;;;;;;;5.75;3.70;;;17.00;87.00;;;;;;6251062;22;20003;-89
2021/08/13 03:02:51;;;;;;;5.00;4.20;;;17.00;86.80;;;;;;6251215;22;20015;-88
2021/08/13 03:05:21;;;;;;;5.70;3.90;;;17.00;87.20;;;;;;6250513;22;20352;-88
2021/08/13 03:07:47;;;;;;;6.85;4.25;;;17.00;87.30;;;;;;6280198;22;20414;-89
2021/08/13 03:10:13;;;;;;;5.43;4.30;;;17.00;87.70;;;;;;6252540;22;20069;-89
2021/08/13 03:12:40;;;;;;;5.47;4.35;;;17.00;87.70;;;;;;6279710;22;20404;-89
2021/08/13 03:15:06;;;;;;;5.30;3.90;;;17.00;87.70;;;;;;6252281;22;20010;-88
2021/08/13 03:17:33;;;;;;;6.72;4.85;;;17.00;87.40;;;;;;6252144;22;20019;-89
2021/08/13 03:20:01;;;;;;;5.78;4.50;;;17.10;87.80;;;;;;6252245;22;20043;-89
2021/08/13 03:22:28;;;;;;;7.00;4.15;;;17.10;87.80;;;;;;6252453;22;20000;-89
2021/08/13 03:24:53;;;;;;;5.78;4.13;;;17.10;87.60;;;;;;6252414;22;19999;-89
2021/08/13 03:27:20;;;;;;;5.13;3.60;;;17.10;87.70;;;;;;6252326;22;20319;-89
2021/08/13 03:29:46;;;;;;;5.00;3.60;;;17.20;87.40;;;;;;6252372;22;20025;-89
2021/08/13 03:32:12;;;;;;;5.65;4.45;;;17.20;88.10;;;;;;6252328;22;20303;-88
2021/08/13 03:34:38;;;;;;;4.65;3.97;;;17.30;87.40;;;;;;6252504;22;19999;-89
2021/08/13 03:37:04;;;;;;;5.50;4.30;;;17.30;87.40;;;;;;6252026;22;20000;-89
2021/08/13 03:39:29;;;;;;;6.43;4.82;;;17.30;87.40;;;;;;6252213;22;20007;-89
2021/08/13 03:41:56;;;;;;;5.80;4.63;;;17.30;87.30;;;;;;6252259;22;20103;-89
2021/08/13 03:44:21;;;;;;;5.88;4.78;;;17.40;87.30;;;;;;6279534;22;20353;-88
2021/08/13 03:46:47;;;;;;;6.05;4.95;;;17.50;87.20;;;;;;6251917;22;20019;-89
2021/08/13 03:49:13;;;;;;;5.55;4.63;;;17.50;87.20;;;;;;6252751;22;19999;-89
2021/08/13 03:51:39;;;;;;;5.70;4.50;;;17.60;87.10;;;;;;6251801;22;20468;-89
2021/08/13 03:54:08;;;;;;;5.55;4.63;;;17.60;87.10;;;;;;6252329;22;20000;-89
2021/08/13 03:56:33;;;;;;;6.78;4.90;;;17.70;87.00;;;;;;6251612;22;19996;-89
2021/08/13 03:59:00;;;;;;;5.18;4.38;;;17.70;86.70;;;;;;6251587;22;20030;-88
2021/08/13 04:01:26;;;;;;;6.28;4.28;;;17.80;86.50;;;;;;6252642;22;20011;-88
2021/08/13 04:03:52;;;;;;;4.80;4.03;;;17.90;86.40;;;;;;6279801;22;20110;-89
2021/08/13 04:06:17;;;;;;;4.85;3.90;;;18.00;86.20;;;;;;6253093;22;20403;-89
2021/08/13 04:08:43;;;;;;;7.55;4.35;;;18.10;85.90;;;;;;6279831;22;19999;-89
2021/08/13 04:11:09;;;;;;;5.55;3.97;;;18.10;85.50;;;;;;6279030;22;20392;-89
2021/08/13 04:13:34;;;;;;;5.93;4.15;;;18.20;85.30;;;;;;6251476;22;20401;-89
2021/08/13 04:16:00;;;;;;;4.78;4.13;;;18.20;85.10;;;;;;6251581;22;20022;-89
2021/08/13 04:18:26;;;;;;;6.45;4.60;;;18.30;84.80;;;;;;6250549;22;20066;-90
2021/08/13 04:20:51;;;;;;;4.80;3.95;;;18.40;84.60;;;;;;6251421;22;20008;-88
2021/08/13 04:23:17;;;;;;;7.18;4.78;;;18.40;84.30;;;;;;6278541;22;20000;-89
2021/08/13 04:25:44;;;;;;;6.93;4.35;;;18.50;84.00;;;;;;6278132;22;19992;-89
2021/08/13 04:28:10;;;;;;;5.35;4.00;;;18.50;83.80;;;;;;6251730;22;20004;-89
2021/08/13 04:30:36;;;;;;;5.43;3.92;;;18.60;83.60;;;;;;6278043;22;19995;-89
2021/08/13 04:33:10;;;;;;;4.95;4.45;;;18.60;83.30;;;;;;6251745;22;19995;-88
2021/08/13 04:35:36;;;;;;;7.82;4.72;;;18.70;83.10;;;;;;6251495;22;20000;-89
2021/08/13 04:38:03;;;;;;;6.05;4.78;;;18.70;82.90;;;;;;6251341;22;20004;-90
2021/08/13 04:40:28;;;;;;;5.88;4.90;;;18.80;82.80;;;;;;6278214;22;20004;-89
2021/08/13 04:42:54;;;;;;;6.68;4.38;;;18.80;82.30;;;;;;6251280;22;20010;-89
2021/08/13 04:45:20;;;;;;;7.85;5.18;;;18.80;82.50;;;;;;6278498;22;20003;-88
2021/08/13 04:47:45;;;;;;;6.05;4.05;;;18.90;82.50;;;;;;6251719;22;20003;-89
2021/08/13 04:50:11;;;;;;;4.80;3.92;;;18.90;82.40;;;;;;6251158;22;20007;-89
2021/08/13 04:52:44;;;;;;;5.57;4.10;;;19.00;82.30;;;;;;6277766;22;20020;-88
2021/08/13 04:55:10;;;;;;;5.90;4.65;;;19.00;82.40;;;;;;6250679;22;20007;-88
2021/08/13 04:57:36;;;;;;;6.20;4.45;;;19.10;82.20;;;;;;6251033;22;20079;-89
2021/08/13 05:00:03;;;;;;;6.68;5.10;;;19.10;82.10;;;;;;6250533;22;20430;-89
2021/08/13 05:02:29;;;;;;;6.07;5.10;;;19.20;82.10;;;;;;6250389;22;20095;-88
2021/08/13 05:04:59;;;;;;;4.70;3.95;;;19.20;82.00;;;;;;6250729;22;19999;-88
2021/08/13 05:07:25;;;;;;;7.50;4.75;;;19.20;82.10;;;;;;6250483;22;20000;-88
2021/08/13 05:09:50;;;;;;;5.35;4.40;;;19.30;82.30;;;;;;6250594;22;20299;-88
2021/08/13 05:12:16;;;;;;;5.30;4.38;;;19.30;82.10;;;;;;6278602;22;20392;-88
2021/08/13 05:14:42;;;;;;;6.35;4.88;;;19.40;82.10;;;;;;6277681;22;19987;-87
2021/08/13 05:17:07;;;;;;;6.70;4.55;;;19.40;81.70;;;;;;6250313;22;20357;-90
2021/08/13 05:19:33;;;;;;;4.80;4.10;;;19.40;81.70;;;;;;6278710;22;20003;-87
2021/08/13 05:21:59;;;;;;;6.28;4.53;;;19.50;81.80;;;;;;6250897;22;20015;-88
2021/08/13 05:24:25;;;;;;;6.80;4.60;;;19.50;81.80;;;;;;6250312;22;20004;-88
2021/08/13 05:26:50;;;;;;;4.72;4.10;;;19.60;81.70;;;;;;6250237;22;20086;-88
2021/08/13 05:29:16;;;;;;;4.80;4.30;;;19.70;81.60;;;;;;6277175;22;19992;-88
2021/08/13 05:31:42;;;;;;;6.18;3.92;;;19.70;81.50;;;;;;6250146;22;19995;-88
2021/08/13 05:34:07;;;;;;;8.60;4.30;;;19.90;81.30;;;;;;6280525;22;19991;-86
2021/08/13 05:36:33;;;;;;;5.32;4.70;;;20.00;81.00;;;;;;6258747;22;20018;-87
2021/08/13 05:38:59;;;;;;;5.05;4.35;;;20.00;80.90;;;;;;6261951;22;19996;-89
2021/08/13 05:41:24;;;;;;;5.70;4.50;;;20.00;80.70;;;;;;6258059;22;20099;-90
2021/08/13 05:43:50;;;;;;;4.85;4.10;;;20.00;80.70;;;;;;6258071;22;20088;-87
2021/08/13 05:46:16;;;;;;;5.65;4.72;;;20.00;80.70;;;;;;6257314;22;20004;-87
2021/08/13 05:48:41;;;;;;;6.10;4.85;;;20.10;80.80;;;;;;6281926;22;20002;-89
2021/08/13 05:51:07;;;;;;;7.40;4.57;;;20.10;80.80;;;;;;6278383;22;19996;-88
2021/08/13 05:53:33;;;;;;;7.80;5.15;;;20.10;80.90;;;;;;6249952;22;20089;-88
2021/08/13 05:55:58;;;;;;;5.72;4.72;;;20.20;80.90;;;;;;6250511;22;20000;-88
2021/08/13 05:58:24;;;;;;;6.22;5.18;;;20.30;80.90;;;;;;6250765;22;20422;-90
2021/08/13 06:00:50;;;;;;;4.88;4.22;;;20.30;80.90;;;;;;6250758;22;20368;-90
2021/08/13 06:03:16;;;;;;;7.90;5.53;;;20.30;80.80;;;;;;6250874;22;20006;-87
2021/08/13 06:05:41;;;;;;;7.20;4.60;;;20.40;80.80;;;;;;6276873;22;19996;-89
2021/08/13 06:08:07;;;;;;;6.63;5.38;;;20.40;80.70;;;;;;6249767;22;20478;-89
2021/08/13 06:10:33;;;;;;;6.07;5.18;;;20.40;80.70;;;;;;6250346;22;20007;-89
2021/08/13 06:12:58;;;;;;;5.22;4.47;;;20.50;80.80;;;;;;6249591;22;20023;-89
2021/08/13 06:15:24;;;;;;;5.28;4.38;;;20.60;80.90;;;;;;6249875;22;19999;-89
2021/08/13 06:17:50;;;;;;;7.40;5.22;;;20.60;80.70;;;;;;6276675;22;20050;-90
2021/08/13 06:20:18;;;;;;;5.53;4.50;;;20.70;80.90;;;;;;6249599;22;20061;-89
2021/08/13 06:22:44;;;;;;;4.93;4.03;;;20.70;80.60;;;;;;6249679;22;19996;-89
2021/08/13 06:25:10;;;;;;;7.00;4.93;;;20.80;80.50;;;;;;6249452;22;20307;-89
2021/08/13 06:27:40;;;;;;;6.22;4.95;;;20.90;80.20;;;;;;6249771;22;20462;-90
2021/08/13 06:30:07;;;;;;;7.13;5.70;;;21.00;80.40;;;;;;6249747;22;20442;-88
2021/08/13 06:32:32;;;;;;;7.72;5.15;;;20.90;80.70;;;;;;6249253;22;20000;-92
2021/08/13 06:34:58;;;;;;;5.60;5.07;;;21.00;80.70;;;;;;6275974;22;20042;-89
2021/08/13 06:37:24;;;;;;;8.18;4.50;;;21.00;81.10;;;;;;6249751;22;20394;-89
2021/08/13 06:39:50;;;;;;;6.72;5.05;;;21.00;81.30;;;;;;6249087;22;20087;-89
2021/08/13 06:42:15;;;;;;;7.22;5.05;;;21.00;81.60;;;;;;6251416;22;20026;-89
2021/08/13 06:44:41;;;;;;;6.53;4.63;;;21.00;81.60;;;;;;6278328;22;20311;-89
2021/08/13 06:47:07;;;;;;;5.28;4.78;;;21.00;81.90;;;;;;6251054;22;20007;-89
2021/08/13 06:49:33;;;;;;;6.88;4.68;;;21.00;82.40;;;;;;6251374;22;19996;-89
2021/08/13 06:51:58;;;;;;;10.02;5.55;;;21.10;82.60;;;;;;6251569;22;20078;-89
2021/08/13 06:54:24;;;;;;;6.15;4.40;;;21.20;81.70;;;;;;6251509;22;20069;-88
2021/08/13 06:56:50;;;;;;;5.95;4.30;;;21.20;81.40;;;;;;6250935;22;20344;-90
2021/08/13 06:59:15;;;;;;;5.80;4.63;;;21.40;81.10;;;;;;6278646;22;20415;-88
2021/08/13 07:01:41;;;;;;;5.85;5.13;;;21.50;80.70;;;;;;6250915;22;20011;-89
2021/08/13 07:04:07;;;;;;;6.18;4.68;;;21.50;79.80;;;;;;6250932;22;20007;-89
2021/08/13 07:06:32;;;;;;;5.78;4.47;;;21.50;78.90;;;;;;6250163;22;19999;-90
2021/08/13 07:09:00;;;;;;;5.72;4.28;;;21.60;78.70;;;;;;6251050;22;20004;-90
2021/08/13 07:11:25;;;;;;;5.60;4.90;;;21.60;78.80;;;;;;6278714;22;20407;-88
2021/08/13 07:13:51;;;;;;;5.00;4.50;;;21.70;78.50;;;;;;6251021;22;20026;-89
2021/08/13 07:16:17;;;;;;;7.90;5.10;;;21.80;78.20;;;;;;6250866;22;20007;-92
2021/08/13 07:18:42;;;;;;;7.47;4.35;;;21.90;78.60;;;;;;6250383;22;20069;-88
2021/08/13 07:21:08;;;;;;;6.15;4.63;;;21.80;77.40;;;;;;6251115;22;20022;-90
2021/08/13 07:23:34;;;;;;;7.93;5.38;;;21.70;77.30;;;;;;6251142;22;20011;-89
2021/08/13 07:26:00;;;;;;;4.60;4.05;;;21.70;77.10;;;;;;6251196;22;20006;-89
2021/08/13 07:28:26;;;;;;;5.13;4.40;;;21.80;77.00;;;;;;6250511;22;19999;-88
2021/08/13 07:30:51;;;;;;;6.55;4.30;;;21.80;76.50;;;;;;6250907;22;20003;-88
2021/08/13 07:33:17;;;;;;;6.20;4.65;;;21.90;76.70;;;;;;6250604;22;20374;-89
2021/08/13 07:35:43;;;;;;;8.23;5.28;;;22.10;76.60;;;;;;6278344;22;20299;-87
2021/08/13 07:38:08;;;;;;;6.25;5.10;;;22.10;76.20;;;;;;6250624;22;20138;-87
2021/08/13 07:40:34;;;;;;;4.72;4.18;;;22.10;76.10;;;;;;6250303;22;20314;-87
2021/08/13 07:43:00;;;;;;;4.97;4.28;;;22.10;75.90;;;;;;6277908;22;19991;-88
2021/08/13 07:45:25;;;;;;;5.93;4.25;;;22.20;75.90;;;;;;6277792;22;20375;-88
2021/08/13 07:47:51;;;;;;;7.57;5.32;;;22.40;75.60;;;;;;6250818;22;20003;-89
2021/08/13 07:50:17;;;;;;;6.18;4.82;;;22.50;74.50;;;;;;6251024;22;20048;-89
2021/08/13 07:52:43;;;;;;;6.20;4.45;;;22.50;74.10;;;;;;6251603;22;20133;-88
2021/08/13 07:55:09;;;;;;;5.00;4.07;;;22.50;73.30;;;;;;6253102;22;19995;-88
2021/08/13 07:57:35;;;;;;;5.25;3.75;;;22.40;73.20;;;;;;6253620;22;20004;-89
2021/08/13 08:00:01;;;;;;;5.78;4.63;;;22.50;73.10;;;;;;6253657;22;19991;-88
2021/08/13 08:02:26;;;;;;;5.82;4.05;;;22.50;72.40;;;;;;6279842;22;19999;-89
2021/08/13 08:04:52;;;;;;;4.45;3.70;;;22.60;71.90;;;;;;6251576;22;20053;-89
2021/08/13 08:07:18;;;;;;;5.03;3.70;;;22.70;71.90;;;;;;6279187;22;20400;-89
2021/08/13 08:09:44;;;;;;;5.18;3.45;;;22.70;70.90;;;;;;6251415;22;20061;-89
2021/08/13 08:12:10;;;;;;;3.72;3.28;;;22.80;70.60;;;;;;6252134;22;19999;-89
2021/08/13 08:14:36;;;;;;;3.65;3.17;;;22.80;70.20;;;;;;6282275;22;19992;-89
2021/08/13 08:17:03;;;;;;;3.80;3.33;;;22.90;69.70;;;;;;6258525;22;20407;-88
2021/08/13 08:19:29;;;;;;;3.53;3.22;;;22.90;69.40;;;;;;6261596;22;20067;-89
2021/08/13 08:21:54;;;;;;;4.10;3.17;;;23.00;67.90;;;;;;6287675;22;20004;-89
2021/08/13 08:24:20;;;;;;;6.13;3.42;;;23.00;67.30;;;;;;6284144;22;19999;-90
2021/08/13 08:26:46;;;;;;;3.10;2.85;;;23.10;66.90;;;;;;6255331;22;20102;-89
2021/08/13 08:29:11;;;;;;;3.75;3.00;;;23.10;66.50;;;;;;6251866;22;20045;-90
2021/08/13 08:31:38;;;;;;;4.97;3.45;;;23.10;65.90;;;;;;6251201;22;20004;-88
2021/08/13 08:34:04;;;;;;;4.22;3.35;;;23.10;65.70;;;;;;6278029;22;19999;-90
2021/08/13 08:36:29;;;;;;;4.07;3.10;;;23.20;64.20;;;;;;6250718;22;20027;-91
2021/08/13 08:38:55;;;;;;;3.50;2.90;;;23.20;64.00;;;;;;6250599;22;20000;-90
2021/08/13 08:41:23;;;;;;;3.63;2.85;;;23.30;63.10;;;;;;6249789;22;20019;-87
2021/08/13 08:43:49;;;;;;;4.95;2.95;;;23.40;63.40;;;;;;6250112;22;20027;-89
2021/08/13 08:46:29;;;;;;;4.10;3.33;;;23.50;62.80;;;;;;6249369;22;20007;-91
2021/08/13 08:48:59;;;;;;;6.45;4.07;;;23.60;62.30;;;;;;6250394;22;20358;-90
2021/08/13 08:51:25;;;;;;;5.15;3.60;;;23.60;62.30;;;;;;6250070;22;19996;-88
2021/08/13 08:53:54;;;;;;;4.38;3.20;;;23.60;61.60;;;;;;6249648;22;20044;-90
2021/08/13 08:56:23;;;;;;;7.22;3.83;;;23.50;61.50;;;;;;6250160;22;20090;-89
2021/08/13 08:58:49;;;;;;;4.20;3.70;;;23.50;61.40;;;;;;6250002;22;20000;-89
2021/08/13 09:01:18;;;;;;;4.25;3.63;;;23.60;61.70;;;;;;6249421;22;20032;-89
2021/08/13 09:03:47;;;;;;;5.82;3.63;;;23.70;60.90;;;;;;6276736;22;20018;-91
2021/08/13 09:06:16;;;;;;;4.53;3.60;;;23.70;60.80;;;;;;6249591;22;20015;-90
2021/08/13 09:08:42;;;;;;;6.68;3.90;;;23.70;60.50;;;;;;6248371;22;19999;-91
2021/08/13 09:11:09;;;;;;;5.13;3.60;;;23.70;60.10;;;;;;6248823;22;20367;-91
2021/08/13 09:13:37;;;;;;;4.57;3.30;;;23.60;60.80;;;;;;6250011;22;20386;-93
2021/08/13 09:16:19;;;;;;;3.45;2.88;;;23.60;60.40;;;;;;6247880;22;20015;-93
2021/08/13 09:19:15;;;;;;;4.85;3.03;;;23.70;60.90;;;;;;6244770;22;20034;-93
2021/08/13 09:21:46;;;;;;;4.30;3.10;;;23.80;59.50;;;;;;6250739;22;20070;-92
2021/08/13 09:24:16;;;;;;;3.67;3.05;;;23.80;58.80;;;;;;6226362;22;19996;-92
2021/08/13 09:26:54;;;;;;;4.00;3.17;;;23.80;59.30;;;;;;6249963;22;20438;-93
2021/08/13 09:29:23;;;;;;;4.72;3.35;;;23.80;58.30;;;;;;6249729;22;20007;-92
2021/08/13 09:31:57;;;;;;;4.30;2.78;;;23.80;58.40;;;;;;6277215;22;19999;-91
2021/08/13 09:34:34;;;;;;;4.50;3.05;;;23.90;59.10;;;;;;6277740;22;19988;-92
2021/08/13 09:37:03;;;;;;;4.35;3.38;;;23.90;58.80;;;;;;6243819;22;20090;-93
2021/08/13 09:39:34;;;;;;;4.28;3.08;;;24.00;58.40;;;;;;6249814;22;20003;-91
2021/08/13 09:42:07;;;;;;;5.28;2.92;;;24.10;58.20;;;;;;6249721;22;20470;-92
2021/08/13 09:44:40;;;;;;;3.40;2.92;;;24.10;58.20;;;;;;6250542;22;20260;-91
2021/08/13 09:47:12;;;;;;;3.95;3.03;;;24.10;58.10;;;;;;6250822;22;19996;-93
2021/08/13 09:49:55;;;;;;;5.63;2.65;;;24.20;57.20;;;;;;6251049;22;20020;-91
2021/08/13 09:52:31;;;;;;;3.83;2.88;;;24.10;56.50;;;;;;6255098;22;20094;-91
2021/08/13 09:55:16;;;;;;;4.28;3.20;;;24.10;57.10;;;;;;6286935;22;19992;-91
2021/08/13 09:57:48;;;;;;;4.65;3.22;;;24.10;57.50;;;;;;6286955;22;20010;-90
2021/08/13 10:00:43;;;;;;;7.87;3.53;;;24.10;57.60;;;;;;6258273;22;20085;-92
2021/08/13 10:03:10;;;;;;;3.20;2.83;;;24.20;56.50;;;;;;6259482;22;20012;-92
2021/08/13 10:05:36;;;;;;;3.83;2.95;;;24.20;56.50;;;;;;6251672;22;19995;-91
2021/08/13 10:08:03;;;;;;;4.35;3.00;;;24.10;56.80;;;;;;6249808;22;20004;-91
2021/08/13 10:10:39;;;;;;;4.57;3.17;;;24.20;56.70;;;;;;6250552;22;20086;-92
2021/08/13 10:13:11;;;;;;;2.95;2.63;;;24.20;56.30;;;;;;6251118;22;20303;-92
2021/08/13 10:15:45;;;;;;;3.15;2.70;;;24.10;56.40;;;;;;6243508;22;19999;-91
2021/08/13 10:18:31;;;;;;;2.63;2.42;;;24.20;56.60;;;;;;6249785;22;20023;-92
2021/08/13 10:21:00;;;;;;;3.47;2.92;;;24.30;56.80;;;;;;6249663;22;20018;-89
2021/08/13 10:23:29;;;;;;;4.70;3.03;;;24.40;56.40;;;;;;6249646;22;20004;-92
2021/08/13 10:25:58;;;;;;;4.85;2.78;;;24.40;56.30;;;;;;6249990;22;20000;-92
2021/08/13 10:28:26;;;;;;;3.13;2.70;;;24.50;56.40;;;;;;6250373;22;20000;-91
2021/08/13 10:30:53;;;;;;;2.70;2.40;;;24.50;55.90;;;;;;6246467;22;20083;-90
2021/08/13 10:33:22;;;;;;;3.53;2.83;;;24.50;56.20;;;;;;6248881;22;19995;-93
2021/08/13 10:35:54;;;;;;;4.00;2.92;;;24.50;56.50;;;;;;6254239;22;20006;-94
2021/08/13 10:38:22;;;;;;;3.90;2.42;;;24.50;56.40;;;;;;6281256;22;19992;-94
2021/08/13 10:40:51;;;;;;;5.18;3.17;;;24.50;56.60;;;;;;6256137;22;20010;-95
2021/08/13 10:43:28;;;;;;;3.83;2.80;;;24.50;56.30;;;;;;6256022;22;20007;-94
2021/08/13 10:46:06;;;;;;;4.35;3.15;;;24.60;56.60;;;;;;6255191;22;20011;-94
2021/08/13 10:49:00;;;;;;;3.33;2.92;;;24.60;56.20;;;;;;6252047;22;20003;-95
2021/08/13 10:51:30;;;;;;;3.10;2.80;;;24.60;56.50;;;;;;6257096;22;20311;-93
2021/08/13 10:54:11;;;;;;;2.75;2.55;;;24.60;56.50;;;;;;6284632;22;20003;-92
2021/08/13 10:56:44;;;;;;;3.60;2.83;;;24.70;56.70;;;;;;6257299;22;19996;-94
2021/08/13 10:59:12;;;;;;;3.83;2.93;;;24.70;56.40;;;;;;6255337;22;20074;-92
2021/08/13 11:02:10;;;;;;;3.85;2.50;;;24.70;56.00;;;;;;6253036;22;20035;-92
2021/08/13 11:04:45;;;;;;;5.32;2.63;;;24.70;55.60;;;;;;6256908;22;20015;-93
2021/08/13 11:07:13;;;;;;;2.58;2.38;;;24.60;56.10;;;;;;6245154;22;20004;-92
2021/08/13 11:09:41;;;;;;;3.67;3.10;;;24.70;56.20;;;;;;6251690;22;19999;-93
2021/08/13 11:12:13;;;;;;;4.57;3.33;;;24.70;56.30;;;;;;6250747;22;19995;-93
2021/08/13 11:15:00;;;;;;;2.90;2.50;;;24.80;56.20;;;;;;6250816;22;19996;-94
2021/08/13 11:17:45;;;;;;;3.80;3.00;;;24.80;56.60;;;;;;6252309;22;20403;-94
2021/08/13 11:20:17;;;;;;;3.90;3.10;;;24.90;56.10;;;;;;6253979;22;20000;-95
2021/08/13 11:22:44;;;;;;;3.28;2.97;;;24.90;56.40;;;;;;6281582;22;20078;-93
2021/08/13 11:25:14;;;;;;;3.70;2.72;;;24.90;56.00;;;;;;6256938;22;19995;-93
2021/08/13 11:28:19;;;;;;;3.63;2.88;;;24.80;55.80;;;;;;6279949;22;20023;-95
2021/08/13 11:30:49;;;;;;;3.50;3.00;;;24.80;56.20;;;;;;6258243;22;20004;-94
2021/08/13 11:33:32;;;;;;;2.55;2.33;;;24.90;55.80;;;;;;6257971;22;19996;-92
2021/08/13 11:35:58;;;;;;;2.75;2.47;;;24.90;55.60;;;;;;6253326;22;20000;-92
2021/08/13 11:38:42;;;;;;;3.10;2.72;;;24.90;55.80;;;;;;6255666;22;20078;-93
2021/08/13 11:41:20;;;;;;;3.22;2.88;;;25.00;55.40;;;;;;6255554;22;20012;-93
2021/08/13 11:43:51;;;;;;;3.47;2.90;;;25.10;54.70;;;;;;6255839;22;20000;-94
2021/08/13 11:46:43;;;;;;;4.10;3.00;;;25.00;55.30;;;;;;6252714;22;19991;-93
2021/08/13 11:49:09;;;;;;;2.75;2.47;;;25.00;55.00;;;;;;6252193;22;20407;-93
2021/08/13 11:51:36;;;;;;;2.63;2.40;;;24.90;55.60;;;;;;6256173;22;20007;-93
2021/08/13 11:54:03;;;;;;;3.35;2.60;;;25.00;55.40;;;;;;6254535;22;20015;-91
2021/08/13 11:56:33;;;;;;;3.20;2.53;;;25.00;54.80;;;;;;6254834;22;20034;-92
2021/08/13 11:59:07;;;;;;;3.08;2.78;;;25.00;54.60;;;;;;6256880;22;20093;-92
2021/08/13 12:01:54;;;;;;;2.45;2.15;;;25.00;53.70;;;;;;6283847;22;20015;-92
2021/08/13 12:04:24;;;;;;;2.90;2.60;;;25.00;53.10;;;;;;6257502;22;20003;-91
2021/08/13 12:07:11;;;;;;;2.63;2.30;;;24.90;53.80;;;;;;6253969;22;20078;-92
2021/08/13 12:09:37;;;;;;;2.70;2.17;;;25.00;54.20;;;;;;6250978;22;20084;-92
2021/08/13 12:12:06;;;;;;;3.13;2.42;;;25.10;54.20;;;;;;6252508;22;20395;-92
2021/08/13 12:14:36;;;;;;;3.20;2.30;;;25.20;54.10;;;;;;6251283;22;19995;-92
2021/08/13 12:17:05;;;;;;;4.38;2.80;;;25.20;53.60;;;;;;6251581;22;19996;-91
2021/08/13 12:19:33;;;;;;;3.33;2.78;;;25.20;53.20;;;;;;6252083;22;20015;-91
2021/08/13 12:22:02;;;;;;;5.13;2.75;;;25.30;53.30;;;;;;6253299;22;20480;-90
2021/08/13 12:24:30;;;;;;;3.35;2.42;;;25.40;53.40;;;;;;6277952;22;19996;-90
2021/08/13 12:26:58;;;;;;;2.63;2.17;;;25.50;53.00;;;;;;6248772;22;20003;-90
2021/08/13 12:29:26;;;;;;;2.83;2.25;;;25.70;53.10;;;;;;6249872;22;20006;-91
2021/08/13 12:32:09;;;;;;;4.13;2.28;;;25.90;52.80;;;;;;6278118;22;20020;-90
2021/08/13 12:34:37;;;;;;;3.78;2.30;;;26.10;52.00;;;;;;6250081;22;20000;-89
2021/08/13 12:37:09;;;;;;;2.95;2.30;;;26.30;51.80;;;;;;6250399;22;20062;-91
2021/08/13 12:39:43;;;;;;;3.58;2.80;;;26.40;50.80;;;;;;6248705;22;20000;-90
2021/08/13 12:42:18;;;;;;;4.38;2.45;;;26.60;49.90;;;;;;6250863;22;20080;-89
2021/08/13 12:44:48;;;;;;;2.72;2.20;;;26.70;50.00;;;;;;6250323;22;20044;-91
2021/08/13 12:47:20;;;;;;;3.58;2.47;;;27.10;51.10;;;;;;6248242;22;20134;-90
2021/08/13 12:49:47;;;;;;;2.25;2.05;;;27.50;49.50;;;;;;6248551;22;19996;-90
2021/08/13 12:52:24;;;;;;;2.85;2.13;;;27.80;50.20;;;;;;6246441;22;19996;-92
2021/08/13 12:54:55;;;;;;;2.25;2.08;;;28.10;47.80;;;;;;6247131;22;20010;-89
2021/08/13 12:57:22;;;;;;;4.38;2.35;;;28.40;48.80;;;;;;6248621;22;20038;-91